»·PEaware :: AAL551 KLAX-KPHX

AAL551 :: KLAX-KPHX

FLIGHT INFORMATION

Flight Status: Arrived
Operator:
American Airlines
More flights by this operator :: More flights under this callsign
Pilot: Brad Z. (13827)
Aircraft: AIRBUS A320
(A320)
More flights by this aircraft type
Origin: KLAX Los Angeles Intl
United States
Destination: KPHX Phoenix Sky Harbor Intl
United States
More flights between these airports :: More routes between these airports
Route: +DOTSS2 CNERY BLH HYDRR1
File this flight plan on PilotEdge
Remarks:
Altitude:
(Current/Filed)
330ft
Speed:
(Current/Filed)
541kts
Departed: 10-May-18 05:11 PM
Arrived: 10-May-18 06:18 PM
Distance/Time
Traveled:
321nm/1:07
Distance/Time
To Go:
Arrived

Flight Plot

Page will automatically refresh every two minutes.

Flight plan parsing failed; only flown route is shown


Map Options




Map Legend


Flown Route
Filed Route
Departure Airport
Arrival Airport
Navaid (VOR, NDB)
Fix

Horizontal Profiles

Position Reports

Time Latitude Longitude Heading Altitude Ground
Speed
10-May-18 16:49 33.941029 -118.405114 82 140ft 0kts
10-May-18 16:50 33.941029 -118.405114 82 140ft 0kts
10-May-18 16:51 33.941029 -118.405114 82 140ft 0kts
10-May-18 16:52 33.941029 -118.405114 82 140ft 0kts
10-May-18 16:53 33.941029 -118.405114 82 140ft 0kts
10-May-18 16:54 33.941029 -118.405114 82 140ft 0kts
10-May-18 16:55 33.941029 -118.405114 82 140ft 0kts
10-May-18 16:56 33.941029 -118.405114 82 140ft 0kts
10-May-18 16:57 33.941029 -118.405114 82 140ft 0kts
10-May-18 16:58 33.941029 -118.405114 82 140ft 0kts
10-May-18 16:59 33.941026 -118.405147 82 140ft 1kts
10-May-18 17:00 33.941213 -118.405773 172 140ft 1kts
10-May-18 17:01 33.941306 -118.405787 172 140ft 0kts
10-May-18 17:02 33.941306 -118.405787 172 140ft 0kts
10-May-18 17:03 33.939949 -118.405587 172 140ft 11kts
10-May-18 17:04 33.938375 -118.403787 81 140ft 9kts
10-May-18 17:05 33.938788 -118.400117 83 140ft 13kts
10-May-18 17:06 33.939364 -118.394464 83 140ft 19kts
10-May-18 17:07 33.940058 -118.387626 82 140ft 22kts
10-May-18 17:08 33.940298 -118.383547 138 140ft 0kts
10-May-18 17:09 33.939655 -118.383252 172 140ft 5kts
10-May-18 17:10 33.937449 -118.383346 224 140ft 8kts
10-May-18 17:11 33.934181 -118.414123 262 922ft 163kts
10-May-18 17:12 33.925126 -118.473811 232 3091ft 217kts
10-May-18 17:13 33.878475 -118.534851 232 5261ft 271kts
10-May-18 17:14 33.808831 -118.552150 165 8403ft 282kts
10-May-18 17:15 33.730638 -118.529294 161 10981ft 306kts
10-May-18 17:16 33.673939 -118.446824 107 12337ft 361kts
10-May-18 17:17 33.644646 -118.328985 94 14688ft 377kts
10-May-18 17:18 33.644812 -118.200862 88 16818ft 393kts
10-May-18 17:19 33.644495 -118.068021 89 17484ft 401kts
10-May-18 17:20 33.644420 -117.932434 89 19438ft 412kts
10-May-18 17:21 33.642424 -117.793014 97 21192ft 426kts
10-May-18 17:22 33.609161 -117.654419 106 22833ft 437kts
10-May-18 17:23 33.574498 -117.512777 105 24292ft 448kts
10-May-18 17:24 33.538231 -117.367768 105 25691ft 457kts
10-May-18 17:25 33.504844 -117.219448 94 26908ft 465kts
10-May-18 17:26 33.502789 -117.063715 88 28086ft 472kts
10-May-18 17:27 33.500031 -116.904730 89 29181ft 479kts
10-May-18 17:28 33.497755 -116.746188 89 30665ft 475kts
10-May-18 17:29 33.495008 -116.588670 89 32040ft 471kts
10-May-18 17:30 33.492206 -116.431617 90 33052ft 469kts
10-May-18 17:31 33.489968 -116.275720 89 33014ft 469kts
10-May-18 17:32 33.487296 -116.119575 89 32999ft 469kts
10-May-18 17:33 33.504663 -115.966455 68 32954ft 465kts
10-May-18 17:34 33.548747 -115.821069 69 32960ft 464kts
10-May-18 17:35 33.591000 -115.674290 68 32973ft 465kts
10-May-18 17:36 33.629466 -115.526636 83 33032ft 468kts
10-May-18 17:37 33.610927 -115.372387 90 33005ft 470kts
10-May-18 17:38 33.609198 -115.215436 90 33055ft 469kts
10-May-18 17:39 33.604288 -115.059407 90 33050ft 468kts
10-May-18 17:40 33.600134 -114.903949 90 32023ft 469kts
10-May-18 17:41 33.593218 -114.747238 99 31022ft 468kts
10-May-18 17:42 33.563659 -114.596246 101 30036ft 462kts
10-May-18 17:43 33.535138 -114.448597 101 28016ft 447kts
10-May-18 17:44 33.507015 -114.306310 101 26052ft 431kts
10-May-18 17:45 33.479592 -114.167454 101 25012ft 426kts
10-May-18 17:46 33.452523 -114.031955 101 23992ft 417kts
10-May-18 17:47 33.425541 -113.897463 101 23699ft 407kts
10-May-18 17:48 33.399797 -113.769694 101 22418ft 399kts
10-May-18 17:49 33.373879 -113.642013 102 21412ft 379kts
10-May-18 17:50 33.348777 -113.518104 102 20419ft 389kts
10-May-18 17:51 33.325910 -113.396534 99 19420ft 369kts
10-May-18 17:52 33.304862 -113.274366 100 18423ft 376kts
10-May-18 17:53 33.286001 -113.152822 98 17425ft 369kts
10-May-18 17:54 33.274416 -113.034853 86 16515ft 340kts
10-May-18 17:55 33.277990 -112.922818 87 15518ft 334kts
10-May-18 17:56 33.280954 -112.814275 83 14630ft 312kts
10-May-18 17:57 33.290618 -112.713096 82 13629ft 302kts
10-May-18 17:58 33.299838 -112.614367 82 12635ft 296kts
10-May-18 17:59 33.308809 -112.517383 82 11634ft 291kts
10-May-18 18:00 33.317666 -112.421099 82 11317ft 292kts
10-May-18 18:01 33.326463 -112.324707 82 11114ft 291kts
10-May-18 18:02 33.335262 -112.228186 83 10115ft 292kts
10-May-18 18:03 33.343913 -112.132523 83 9611ft 276kts
10-May-18 18:04 33.346933 -112.047839 91 8625ft 247kts
10-May-18 18:05 33.345713 -111.966748 91 7316ft 241kts
10-May-18 18:06 33.345541 -111.887096 88 6774ft 236kts
10-May-18 18:07 33.346456 -111.811994 89 5263ft 234kts
10-May-18 18:08 33.347174 -111.734719 89 4113ft 231kts
10-May-18 18:09 33.347910 -111.657641 89 4311ft 232kts
10-May-18 18:10 33.366597 -111.589400 20 4335ft 231kts
10-May-18 18:11 33.423985 -111.615651 304 4341ft 232kts
10-May-18 18:12 33.432045 -111.690912 270 4340ft 231kts
10-May-18 18:13 33.435874 -111.767727 280 4345ft 231kts
10-May-18 18:14 33.440631 -111.839392 269 3630ft 206kts
10-May-18 18:15 33.440738 -111.901186 269 2662ft 159kts
10-May-18 18:16 33.440793 -111.949746 268 1871ft 142kts
10-May-18 18:17 33.440795 -111.996475 268 1161ft 138kts
10-May-18 18:18 33.440199 -112.013822 219 1149ft 0kts
10-May-18 18:19 33.439094 -112.014349 117 1149ft 5kts

Navigation Log

Ident Type
Flight plan parsing failed, navigation log unavailable